sensor_id;sensor_type;location;lat;lon;timestamp;P1;durP1;ratioP1;P2;durP2;ratioP2
10226;SDS011;15634;48.766;2.272;2023-07-16T00:00:53;14.18;;;5.30;;
10226;SDS011;15634;48.766;2.272;2023-07-16T00:03:20;8.18;;;4.80;;
10226;SDS011;15634;48.766;2.272;2023-07-16T00:05:49;10.40;;;5.10;;
10226;SDS011;15634;48.766;2.272;2023-07-16T00:08:16;18.70;;;8.20;;
10226;SDS011;15634;48.766;2.272;2023-07-16T00:10:42;11.18;;;5.53;;
10226;SDS011;15634;48.766;2.272;2023-07-16T00:13:09;11.90;;;4.68;;
10226;SDS011;15634;48.766;2.272;2023-07-16T00:15:37;14.48;;;5.00;;
10226;SDS011;15634;48.766;2.272;2023-07-16T00:18:03;12.05;;;4.88;;
10226;SDS011;15634;48.766;2.272;2023-07-16T00:20:31;10.52;;;5.20;;
10226;SDS011;15634;48.766;2.272;2023-07-16T00:22:57;12.07;;;4.53;;
10226;SDS011;15634;48.766;2.272;2023-07-16T00:25:24;12.05;;;5.90;;
10226;SDS011;15634;48.766;2.272;2023-07-16T00:27:51;12.70;;;5.55;;
10226;SDS011;15634;48.766;2.272;2023-07-16T00:30:17;16.40;;;6.00;;
10226;SDS011;15634;48.766;2.272;2023-07-16T00:32:45;11.10;;;4.90;;
10226;SDS011;15634;48.766;2.272;2023-07-16T00:35:12;12.77;;;4.88;;
10226;SDS011;15634;48.766;2.272;2023-07-16T00:37:39;12.07;;;4.82;;
10226;SDS011;15634;48.766;2.272;2023-07-16T00:40:06;13.65;;;6.40;;
10226;SDS011;15634;48.766;2.272;2023-07-16T00:42:34;9.82;;;4.80;;
10226;SDS011;15634;48.766;2.272;2023-07-16T00:45:00;10.82;;;5.00;;
10226;SDS011;15634;48.766;2.272;2023-07-16T00:47:27;12.00;;;5.60;;
10226;SDS011;15634;48.766;2.272;2023-07-16T00:49:55;12.82;;;5.47;;
10226;SDS011;15634;48.766;2.272;2023-07-16T00:52:22;14.65;;;5.45;;
10226;SDS011;15634;48.766;2.272;2023-07-16T00:54:49;9.70;;;5.18;;
10226;SDS011;15634;48.766;2.272;2023-07-16T00:57:16;13.77;;;5.70;;
10226;SDS011;15634;48.766;2.272;2023-07-16T00:59:42;13.55;;;5.30;;
10226;SDS011;15634;48.766;2.272;2023-07-16T01:02:09;14.50;;;5.20;;
10226;SDS011;15634;48.766;2.272;2023-07-16T01:04:36;14.35;;;5.15;;
10226;SDS011;15634;48.766;2.272;2023-07-16T01:07:04;11.73;;;5.57;;
10226;SDS011;15634;48.766;2.272;2023-07-16T01:09:33;11.35;;;5.28;;
10226;SDS011;15634;48.766;2.272;2023-07-16T01:12:03;10.02;;;5.15;;
10226;SDS011;15634;48.766;2.272;2023-07-16T01:14:31;13.02;;;5.60;;
10226;SDS011;15634;48.766;2.272;2023-07-16T01:16:58;17.40;;;5.43;;
10226;SDS011;15634;48.766;2.272;2023-07-16T01:19:24;12.57;;;6.10;;
10226;SDS011;15634;48.766;2.272;2023-07-16T01:21:54;13.00;;;5.22;;
10226;SDS011;15634;48.766;2.272;2023-07-16T01:24:41;12.68;;;5.90;;
10226;SDS011;15634;48.766;2.272;2023-07-16T01:27:25;12.65;;;5.60;;
10226;SDS011;15634;48.766;2.272;2023-07-16T01:30:07;19.23;;;6.47;;
10226;SDS011;15634;48.766;2.272;2023-07-16T01:32:35;14.88;;;6.65;;
10226;SDS011;15634;48.766;2.272;2023-07-16T01:35:03;13.85;;;6.03;;
10226;SDS011;15634;48.766;2.272;2023-07-16T01:37:31;9.05;;;4.93;;
10226;SDS011;15634;48.766;2.272;2023-07-16T01:39:58;16.65;;;6.30;;
10226;SDS011;15634;48.766;2.272;2023-07-16T01:42:25;11.68;;;5.78;;
10226;SDS011;15634;48.766;2.272;2023-07-16T01:44:52;14.95;;;6.07;;
10226;SDS011;15634;48.766;2.272;2023-07-16T01:47:21;14.38;;;6.07;;
10226;SDS011;15634;48.766;2.272;2023-07-16T01:49:51;14.27;;;6.05;;
10226;SDS011;15634;48.766;2.272;2023-07-16T01:52:17;15.90;;;6.93;;
10226;SDS011;15634;48.766;2.272;2023-07-16T01:54:44;14.48;;;6.47;;
10226;SDS011;15634;48.766;2.272;2023-07-16T01:57:11;14.98;;;5.80;;
10226;SDS011;15634;48.766;2.272;2023-07-16T01:59:37;15.00;;;6.85;;
10226;SDS011;15634;48.766;2.272;2023-07-16T02:02:04;15.05;;;5.97;;
10226;SDS011;15634;48.766;2.272;2023-07-16T02:04:32;19.60;;;6.82;;
10226;SDS011;15634;48.766;2.272;2023-07-16T02:06:59;12.18;;;6.13;;
10226;SDS011;15634;48.766;2.272;2023-07-16T02:09:26;14.63;;;5.88;;
10226;SDS011;15634;48.766;2.272;2023-07-16T02:11:52;14.68;;;5.78;;
10226;SDS011;15634;48.766;2.272;2023-07-16T02:14:19;13.20;;;5.90;;
10226;SDS011;15634;48.766;2.272;2023-07-16T02:16:46;14.95;;;6.10;;
10226;SDS011;15634;48.766;2.272;2023-07-16T02:19:12;13.00;;;5.43;;
10226;SDS011;15634;48.766;2.272;2023-07-16T02:21:40;16.63;;;6.13;;
10226;SDS011;15634;48.766;2.272;2023-07-16T02:24:07;14.70;;;5.80;;
10226;SDS011;15634;48.766;2.272;2023-07-16T02:26:33;19.27;;;6.22;;
10226;SDS011;15634;48.766;2.272;2023-07-16T02:29:00;13.38;;;5.93;;
10226;SDS011;15634;48.766;2.272;2023-07-16T02:31:27;15.70;;;6.07;;
10226;SDS011;15634;48.766;2.272;2023-07-16T02:33:54;19.00;;;6.13;;
10226;SDS011;15634;48.766;2.272;2023-07-16T02:36:20;11.57;;;5.60;;
10226;SDS011;15634;48.766;2.272;2023-07-16T02:38:48;13.70;;;5.63;;
10226;SDS011;15634;48.766;2.272;2023-07-16T02:41:15;11.93;;;5.72;;
10226;SDS011;15634;48.766;2.272;2023-07-16T02:43:42;15.68;;;5.75;;
10226;SDS011;15634;48.766;2.272;2023-07-16T02:46:08;12.70;;;5.32;;
10226;SDS011;15634;48.766;2.272;2023-07-16T02:48:35;12.57;;;5.47;;
10226;SDS011;15634;48.766;2.272;2023-07-16T02:51:01;13.75;;;5.55;;
10226;SDS011;15634;48.766;2.272;2023-07-16T02:53:28;12.45;;;5.63;;
10226;SDS011;15634;48.766;2.272;2023-07-16T02:55:56;12.25;;;6.18;;
10226;SDS011;15634;48.766;2.272;2023-07-16T02:58:23;18.33;;;5.55;;
10226;SDS011;15634;48.766;2.272;2023-07-16T03:00:50;14.10;;;6.10;;
10226;SDS011;15634;48.766;2.272;2023-07-16T03:03:16;14.15;;;5.63;;
10226;SDS011;15634;48.766;2.272;2023-07-16T03:05:43;12.27;;;5.80;;
10226;SDS011;15634;48.766;2.272;2023-07-16T03:08:10;14.23;;;5.60;;
10226;SDS011;15634;48.766;2.272;2023-07-16T03:10:36;13.45;;;5.95;;
10226;SDS011;15634;48.766;2.272;2023-07-16T03:13:04;14.48;;;5.30;;
10226;SDS011;15634;48.766;2.272;2023-07-16T03:15:31;14.48;;;5.32;;
10226;SDS011;15634;48.766;2.272;2023-07-16T03:17:58;13.68;;;6.00;;
10226;SDS011;15634;48.766;2.272;2023-07-16T03:20:24;14.40;;;5.68;;
10226;SDS011;15634;48.766;2.272;2023-07-16T03:22:51;16.02;;;5.82;;
10226;SDS011;15634;48.766;2.272;2023-07-16T03:25:18;15.10;;;5.78;;
10226;SDS011;15634;48.766;2.272;2023-07-16T03:27:44;17.00;;;5.93;;
10226;SDS011;15634;48.766;2.272;2023-07-16T03:30:12;15.80;;;6.15;;
10226;SDS011;15634;48.766;2.272;2023-07-16T03:32:39;11.80;;;5.35;;
10226;SDS011;15634;48.766;2.272;2023-07-16T03:35:06;12.15;;;5.63;;
10226;SDS011;15634;48.766;2.272;2023-07-16T03:37:32;16.55;;;5.95;;
10226;SDS011;15634;48.766;2.272;2023-07-16T03:40:11;14.52;;;5.40;;
10226;SDS011;15634;48.766;2.272;2023-07-16T03:42:38;14.68;;;5.80;;
10226;SDS011;15634;48.766;2.272;2023-07-16T03:45:05;13.65;;;5.82;;
10226;SDS011;15634;48.766;2.272;2023-07-16T03:47:34;16.80;;;6.30;;
10226;SDS011;15634;48.766;2.272;2023-07-16T03:50:01;11.32;;;5.00;;
10226;SDS011;15634;48.766;2.272;2023-07-16T03:52:27;16.38;;;5.78;;
10226;SDS011;15634;48.766;2.272;2023-07-16T03:54:54;17.45;;;6.10;;
10226;SDS011;15634;48.766;2.272;2023-07-16T03:57:20;17.55;;;6.00;;
10226;SDS011;15634;48.766;2.272;2023-07-16T03:59:47;13.98;;;5.60;;
10226;SDS011;15634;48.766;2.272;2023-07-16T04:02:14;12.20;;;5.93;;
10226;SDS011;15634;48.766;2.272;2023-07-16T04:04:42;13.43;;;5.80;;
10226;SDS011;15634;48.766;2.272;2023-07-16T04:07:08;14.88;;;5.78;;
10226;SDS011;15634;48.766;2.272;2023-07-16T04:09:36;16.52;;;6.03;;
10226;SDS011;15634;48.766;2.272;2023-07-16T04:12:03;14.70;;;5.57;;
10226;SDS011;15634;48.766;2.272;2023-07-16T04:14:31;15.48;;;6.00;;
10226;SDS011;15634;48.766;2.272;2023-07-16T04:16:58;14.93;;;6.75;;
10226;SDS011;15634;48.766;2.272;2023-07-16T04:19:24;13.45;;;5.35;;
10226;SDS011;15634;48.766;2.272;2023-07-16T04:21:52;14.55;;;6.57;;
10226;SDS011;15634;48.766;2.272;2023-07-16T04:24:19;12.10;;;5.57;;
10226;SDS011;15634;48.766;2.272;2023-07-16T04:26:46;15.65;;;6.00;;
10226;SDS011;15634;48.766;2.272;2023-07-16T04:29:12;15.65;;;5.85;;
10226;SDS011;15634;48.766;2.272;2023-07-16T04:31:39;11.57;;;5.68;;
10226;SDS011;15634;48.766;2.272;2023-07-16T04:34:06;15.85;;;5.82;;
10226;SDS011;15634;48.766;2.272;2023-07-16T04:36:32;12.23;;;5.97;;
10226;SDS011;15634;48.766;2.272;2023-07-16T04:39:00;13.75;;;5.97;;
10226;SDS011;15634;48.766;2.272;2023-07-16T04:41:27;13.50;;;5.43;;
10226;SDS011;15634;48.766;2.272;2023-07-16T04:43:54;13.05;;;5.30;;
10226;SDS011;15634;48.766;2.272;2023-07-16T04:46:21;13.45;;;6.00;;
10226;SDS011;15634;48.766;2.272;2023-07-16T04:48:47;13.07;;;5.63;;
10226;SDS011;15634;48.766;2.272;2023-07-16T04:51:14;14.30;;;5.72;;
10226;SDS011;15634;48.766;2.272;2023-07-16T04:53:40;15.45;;;5.38;;
10226;SDS011;15634;48.766;2.272;2023-07-16T04:56:12;13.75;;;5.45;;
10226;SDS011;15634;48.766;2.272;2023-07-16T04:58:39;13.02;;;5.22;;
10226;SDS011;15634;48.766;2.272;2023-07-16T05:01:06;15.88;;;5.78;;
10226;SDS011;15634;48.766;2.272;2023-07-16T05:03:33;15.60;;;5.68;;
10226;SDS011;15634;48.766;2.272;2023-07-16T05:06:00;14.77;;;5.95;;
10226;SDS011;15634;48.766;2.272;2023-07-16T05:08:26;14.35;;;6.18;;
10226;SDS011;15634;48.766;2.272;2023-07-16T05:10:53;15.43;;;6.28;;
10226;SDS011;15634;48.766;2.272;2023-07-16T05:13:21;13.60;;;6.13;;
10226;SDS011;15634;48.766;2.272;2023-07-16T05:15:48;11.82;;;5.70;;
10226;SDS011;15634;48.766;2.272;2023-07-16T05:18:15;14.48;;;6.57;;
10226;SDS011;15634;48.766;2.272;2023-07-16T05:20:42;12.50;;;6.22;;
10226;SDS011;15634;48.766;2.272;2023-07-16T05:23:09;11.80;;;6.07;;
10226;SDS011;15634;48.766;2.272;2023-07-16T05:25:36;14.07;;;6.30;;
10226;SDS011;15634;48.766;2.272;2023-07-16T05:28:03;16.52;;;6.55;;
10226;SDS011;15634;48.766;2.272;2023-07-16T05:30:31;19.70;;;7.00;;
10226;SDS011;15634;48.766;2.272;2023-07-16T05:32:57;16.58;;;7.40;;
10226;SDS011;15634;48.766;2.272;2023-07-16T05:35:24;17.67;;;6.28;;
10226;SDS011;15634;48.766;2.272;2023-07-16T05:37:51;13.77;;;6.85;;
10226;SDS011;15634;48.766;2.272;2023-07-16T05:40:17;19.27;;;7.78;;
10226;SDS011;15634;48.766;2.272;2023-07-16T05:42:44;15.60;;;6.80;;
10226;SDS011;15634;48.766;2.272;2023-07-16T05:45:11;17.48;;;7.00;;
10226;SDS011;15634;48.766;2.272;2023-07-16T05:47:39;21.00;;;7.18;;
10226;SDS011;15634;48.766;2.272;2023-07-16T05:50:06;13.93;;;6.10;;
10226;SDS011;15634;48.766;2.272;2023-07-16T05:52:33;17.30;;;7.45;;
10226;SDS011;15634;48.766;2.272;2023-07-16T05:55:00;16.00;;;6.43;;
10226;SDS011;15634;48.766;2.272;2023-07-16T05:57:27;15.65;;;7.07;;
10226;SDS011;15634;48.766;2.272;2023-07-16T05:59:53;18.35;;;6.95;;
10226;SDS011;15634;48.766;2.272;2023-07-16T06:02:20;17.45;;;7.18;;
10226;SDS011;15634;48.766;2.272;2023-07-16T06:04:48;15.88;;;6.38;;
10226;SDS011;15634;48.766;2.272;2023-07-16T06:07:14;16.90;;;7.05;;
10226;SDS011;15634;48.766;2.272;2023-07-16T06:09:42;17.48;;;7.13;;
10226;SDS011;15634;48.766;2.272;2023-07-16T06:12:08;16.48;;;7.22;;
10226;SDS011;15634;48.766;2.272;2023-07-16T06:14:35;13.52;;;6.22;;
10226;SDS011;15634;48.766;2.272;2023-07-16T06:17:01;17.35;;;7.13;;
10226;SDS011;15634;48.766;2.272;2023-07-16T06:19:28;16.73;;;6.70;;
10226;SDS011;15634;48.766;2.272;2023-07-16T06:21:56;15.43;;;6.80;;
10226;SDS011;15634;48.766;2.272;2023-07-16T06:24:23;17.58;;;7.15;;
10226;SDS011;15634;48.766;2.272;2023-07-16T06:26:50;16.90;;;6.50;;
10226;SDS011;15634;48.766;2.272;2023-07-16T06:29:17;18.13;;;7.03;;
10226;SDS011;15634;48.766;2.272;2023-07-16T06:31:53;17.92;;;6.82;;
10226;SDS011;15634;48.766;2.272;2023-07-16T06:34:21;20.67;;;7.13;;
10226;SDS011;15634;48.766;2.272;2023-07-16T06:36:47;16.08;;;6.88;;
10226;SDS011;15634;48.766;2.272;2023-07-16T06:39:15;15.82;;;6.57;;
10226;SDS011;15634;48.766;2.272;2023-07-16T06:41:42;24.25;;;7.93;;
10226;SDS011;15634;48.766;2.272;2023-07-16T06:44:08;18.13;;;6.70;;
10226;SDS011;15634;48.766;2.272;2023-07-16T06:46:35;15.82;;;6.35;;
10226;SDS011;15634;48.766;2.272;2023-07-16T06:49:02;24.65;;;7.63;;
10226;SDS011;15634;48.766;2.272;2023-07-16T06:51:28;16.25;;;6.72;;
10226;SDS011;15634;48.766;2.272;2023-07-16T06:53:57;17.70;;;6.85;;
10226;SDS011;15634;48.766;2.272;2023-07-16T06:56:25;17.10;;;6.95;;
10226;SDS011;15634;48.766;2.272;2023-07-16T06:58:52;14.43;;;5.70;;
10226;SDS011;15634;48.766;2.272;2023-07-16T07:01:18;15.57;;;6.97;;
10226;SDS011;15634;48.766;2.272;2023-07-16T07:03:45;17.65;;;6.63;;
10226;SDS011;15634;48.766;2.272;2023-07-16T07:06:12;16.83;;;6.72;;
10226;SDS011;15634;48.766;2.272;2023-07-16T07:08:39;15.27;;;7.00;;
10226;SDS011;15634;48.766;2.272;2023-07-16T07:11:05;20.52;;;6.40;;
10226;SDS011;15634;48.766;2.272;2023-07-16T07:13:33;11.05;;;4.95;;
10226;SDS011;15634;48.766;2.272;2023-07-16T07:16:00;14.82;;;5.88;;
10226;SDS011;15634;48.766;2.272;2023-07-16T07:18:27;17.33;;;6.20;;
10226;SDS011;15634;48.766;2.272;2023-07-16T07:20:53;13.23;;;5.45;;
10226;SDS011;15634;48.766;2.272;2023-07-16T07:23:20;13.23;;;5.45;;
10226;SDS011;15634;48.766;2.272;2023-07-16T07:25:48;15.68;;;6.53;;
10226;SDS011;15634;48.766;2.272;2023-07-16T07:28:15;14.20;;;6.00;;
10226;SDS011;15634;48.766;2.272;2023-07-16T07:30:43;12.90;;;5.53;;
10226;SDS011;15634;48.766;2.272;2023-07-16T07:33:10;11.32;;;5.53;;
10226;SDS011;15634;48.766;2.272;2023-07-16T07:35:36;13.77;;;6.35;;
10226;SDS011;15634;48.766;2.272;2023-07-16T07:38:03;9.98;;;5.30;;
10226;SDS011;15634;48.766;2.272;2023-07-16T07:40:30;12.15;;;5.43;;
10226;SDS011;15634;48.766;2.272;2023-07-16T07:42:56;14.80;;;5.57;;
10226;SDS011;15634;48.766;2.272;2023-07-16T07:45:23;15.95;;;6.07;;
10226;SDS011;15634;48.766;2.272;2023-07-16T07:47:51;12.35;;;5.75;;
10226;SDS011;15634;48.766;2.272;2023-07-16T07:50:18;12.85;;;6.47;;
10226;SDS011;15634;48.766;2.272;2023-07-16T07:52:45;10.93;;;5.85;;
10226;SDS011;15634;48.766;2.272;2023-07-16T07:55:11;12.95;;;6.13;;
10226;SDS011;15634;48.766;2.272;2023-07-16T07:57:38;16.30;;;6.22;;
10226;SDS011;15634;48.766;2.272;2023-07-16T08:00:05;15.25;;;6.38;;
10226;SDS011;15634;48.766;2.272;2023-07-16T08:02:36;15.60;;;5.53;;
10226;SDS011;15634;48.766;2.272;2023-07-16T08:05:05;13.45;;;6.10;;
10226;SDS011;15634;48.766;2.272;2023-07-16T08:07:32;14.57;;;6.03;;
10226;SDS011;15634;48.766;2.272;2023-07-16T08:09:59;15.10;;;6.90;;
10226;SDS011;15634;48.766;2.272;2023-07-16T08:12:26;13.98;;;6.18;;
10226;SDS011;15634;48.766;2.272;2023-07-16T08:14:52;15.00;;;5.90;;
10226;SDS011;15634;48.766;2.272;2023-07-16T08:17:19;14.73;;;5.57;;
10226;SDS011;15634;48.766;2.272;2023-07-16T08:19:46;14.43;;;5.72;;
10226;SDS011;15634;48.766;2.272;2023-07-16T08:22:14;11.65;;;5.70;;
10226;SDS011;15634;48.766;2.272;2023-07-16T08:24:40;10.23;;;5.63;;
10226;SDS011;15634;48.766;2.272;2023-07-16T08:27:07;13.82;;;6.18;;
10226;SDS011;15634;48.766;2.272;2023-07-16T08:29:35;12.80;;;5.60;;
10226;SDS011;15634;48.766;2.272;2023-07-16T08:32:01;14.13;;;5.18;;
10226;SDS011;15634;48.766;2.272;2023-07-16T08:34:29;14.07;;;5.55;;
10226;SDS011;15634;48.766;2.272;2023-07-16T08:36:55;12.07;;;5.53;;
10226;SDS011;15634;48.766;2.272;2023-07-16T08:39:23;11.88;;;5.35;;
10226;SDS011;15634;48.766;2.272;2023-07-16T08:41:50;9.88;;;5.28;;
10226;SDS011;15634;48.766;2.272;2023-07-16T08:44:17;13.30;;;5.85;;
10226;SDS011;15634;48.766;2.272;2023-07-16T08:46:44;12.70;;;5.50;;
10226;SDS011;15634;48.766;2.272;2023-07-16T08:49:11;13.63;;;5.30;;
10226;SDS011;15634;48.766;2.272;2023-07-16T08:51:38;10.45;;;5.28;;
10226;SDS011;15634;48.766;2.272;2023-07-16T08:54:05;13.13;;;5.45;;
10226;SDS011;15634;48.766;2.272;2023-07-16T08:56:33;9.63;;;4.95;;
10226;SDS011;15634;48.766;2.272;2023-07-16T08:58:59;10.15;;;5.53;;
10226;SDS011;15634;48.766;2.272;2023-07-16T09:01:26;12.30;;;5.18;;
10226;SDS011;15634;48.766;2.272;2023-07-16T09:03:54;11.73;;;5.07;;
10226;SDS011;15634;48.766;2.272;2023-07-16T09:06:20;13.70;;;4.65;;
10226;SDS011;15634;48.766;2.272;2023-07-16T09:08:47;13.52;;;5.38;;
10226;SDS011;15634;48.766;2.272;2023-07-16T09:11:13;12.50;;;4.90;;
10226;SDS011;15634;48.766;2.272;2023-07-16T09:13:45;12.23;;;4.82;;
10226;SDS011;15634;48.766;2.272;2023-07-16T09:16:11;9.30;;;4.65;;
10226;SDS011;15634;48.766;2.272;2023-07-16T09:18:39;13.93;;;4.97;;
10226;SDS011;15634;48.766;2.272;2023-07-16T09:21:06;14.43;;;4.57;;
10226;SDS011;15634;48.766;2.272;2023-07-16T09:23:33;10.48;;;4.43;;
10226;SDS011;15634;48.766;2.272;2023-07-16T09:25:59;9.70;;;4.40;;
10226;SDS011;15634;48.766;2.272;2023-07-16T09:28:29;9.05;;;4.20;;
10226;SDS011;15634;48.766;2.272;2023-07-16T09:31:02;11.48;;;4.90;;
10226;SDS011;15634;48.766;2.272;2023-07-16T09:33:31;11.68;;;4.60;;
10226;SDS011;15634;48.766;2.272;2023-07-16T09:35:57;10.95;;;5.15;;
10226;SDS011;15634;48.766;2.272;2023-07-16T09:38:24;12.02;;;4.70;;
10226;SDS011;15634;48.766;2.272;2023-07-16T09:40:51;14.32;;;5.50;;
10226;SDS011;15634;48.766;2.272;2023-07-16T09:43:18;11.50;;;4.70;;
10226;SDS011;15634;48.766;2.272;2023-07-16T09:45:48;14.52;;;5.32;;
10226;SDS011;15634;48.766;2.272;2023-07-16T09:48:17;11.65;;;4.82;;
10226;SDS011;15634;48.766;2.272;2023-07-16T09:50:44;10.63;;;4.70;;
10226;SDS011;15634;48.766;2.272;2023-07-16T09:53:15;11.57;;;4.63;;
10226;SDS011;15634;48.766;2.272;2023-07-16T09:55:45;9.05;;;3.28;;
10226;SDS011;15634;48.766;2.272;2023-07-16T09:58:17;10.70;;;3.85;;
10226;SDS011;15634;48.766;2.272;2023-07-16T10:00:45;9.85;;;4.38;;
10226;SDS011;15634;48.766;2.272;2023-07-16T10:03:12;10.30;;;4.72;;
10226;SDS011;15634;48.766;2.272;2023-07-16T10:05:42;10.48;;;5.30;;
10226;SDS011;15634;48.766;2.272;2023-07-16T10:08:15;14.52;;;4.80;;
10226;SDS011;15634;48.766;2.272;2023-07-16T10:10:43;12.43;;;4.63;;
10226;SDS011;15634;48.766;2.272;2023-07-16T10:13:12;15.50;;;4.80;;
10226;SDS011;15634;48.766;2.272;2023-07-16T10:15:39;12.13;;;4.18;;
10226;SDS011;15634;48.766;2.272;2023-07-16T10:18:22;11.02;;;4.50;;
10226;SDS011;15634;48.766;2.272;2023-07-16T10:20:51;12.30;;;4.88;;
10226;SDS011;15634;48.766;2.272;2023-07-16T10:23:18;16.98;;;5.00;;
10226;SDS011;15634;48.766;2.272;2023-07-16T10:25:57;11.52;;;4.32;;
10226;SDS011;15634;48.766;2.272;2023-07-16T10:28:24;11.80;;;4.80;;
10226;SDS011;15634;48.766;2.272;2023-07-16T10:30:51;9.68;;;3.88;;
10226;SDS011;15634;48.766;2.272;2023-07-16T10:33:18;11.45;;;3.92;;
10226;SDS011;15634;48.766;2.272;2023-07-16T10:35:45;8.77;;;4.00;;
10226;SDS011;15634;48.766;2.272;2023-07-16T10:38:13;9.07;;;4.47;;
10226;SDS011;15634;48.766;2.272;2023-07-16T10:40:40;9.50;;;4.38;;
10226;SDS011;15634;48.766;2.272;2023-07-16T10:43:07;9.93;;;4.28;;
10226;SDS011;15634;48.766;2.272;2023-07-16T10:45:33;9.73;;;4.10;;
10226;SDS011;15634;48.766;2.272;2023-07-16T10:48:00;9.73;;;4.15;;
10226;SDS011;15634;48.766;2.272;2023-07-16T10:50:27;8.40;;;3.97;;
10226;SDS011;15634;48.766;2.272;2023-07-16T10:52:54;11.68;;;3.90;;
10226;SDS011;15634;48.766;2.272;2023-07-16T10:55:23;7.43;;;3.70;;
10226;SDS011;15634;48.766;2.272;2023-07-16T10:57:50;11.40;;;3.85;;
10226;SDS011;15634;48.766;2.272;2023-07-16T11:00:18;8.82;;;3.83;;
10226;SDS011;15634;48.766;2.272;2023-07-16T11:02:45;11.18;;;3.92;;
10226;SDS011;15634;48.766;2.272;2023-07-16T11:05:12;7.53;;;3.35;;
10226;SDS011;15634;48.766;2.272;2023-07-16T11:07:42;8.63;;;3.80;;
10226;SDS011;15634;48.766;2.272;2023-07-16T11:10:09;8.23;;;3.83;;
10226;SDS011;15634;48.766;2.272;2023-07-16T11:12:38;6.85;;;3.38;;
10226;SDS011;15634;48.766;2.272;2023-07-16T11:15:04;9.80;;;4.35;;
10226;SDS011;15634;48.766;2.272;2023-07-16T11:17:32;8.60;;;3.10;;
10226;SDS011;15634;48.766;2.272;2023-07-16T11:19:59;8.70;;;3.90;;
10226;SDS011;15634;48.766;2.272;2023-07-16T11:22:27;9.30;;;3.72;;
10226;SDS011;15634;48.766;2.272;2023-07-16T11:24:54;9.60;;;3.65;;
10226;SDS011;15634;48.766;2.272;2023-07-16T11:27:21;6.53;;;3.33;;
10226;SDS011;15634;48.766;2.272;2023-07-16T11:29:52;8.43;;;3.63;;
10226;SDS011;15634;48.766;2.272;2023-07-16T11:32:26;11.38;;;4.30;;
10226;SDS011;15634;48.766;2.272;2023-07-16T11:34:53;10.02;;;3.92;;
10226;SDS011;15634;48.766;2.272;2023-07-16T11:37:20;8.93;;;4.40;;
10226;SDS011;15634;48.766;2.272;2023-07-16T11:39:48;8.82;;;3.58;;
10226;SDS011;15634;48.766;2.272;2023-07-16T11:42:18;7.63;;;4.28;;
10226;SDS011;15634;48.766;2.272;2023-07-16T11:44:49;6.65;;;3.75;;
10226;SDS011;15634;48.766;2.272;2023-07-16T11:47:17;12.68;;;4.55;;
10226;SDS011;15634;48.766;2.272;2023-07-16T11:49:44;7.78;;;3.95;;
10226;SDS011;15634;48.766;2.272;2023-07-16T11:52:11;7.43;;;4.13;;
10226;SDS011;15634;48.766;2.272;2023-07-16T11:54:37;9.00;;;4.10;;
10226;SDS011;15634;48.766;2.272;2023-07-16T11:57:04;8.38;;;3.92;;
10226;SDS011;15634;48.766;2.272;2023-07-16T11:59:31;9.45;;;4.35;;
10226;SDS011;15634;48.766;2.272;2023-07-16T12:01:59;8.73;;;3.92;;
10226;SDS011;15634;48.766;2.272;2023-07-16T12:04:26;11.57;;;4.45;;
10226;SDS011;15634;48.766;2.272;2023-07-16T12:06:52;7.15;;;3.90;;
10226;SDS011;15634;48.766;2.272;2023-07-16T12:09:19;8.60;;;4.63;;
10226;SDS011;15634;48.766;2.272;2023-07-16T12:11:47;9.38;;;4.90;;
10226;SDS011;15634;48.766;2.272;2023-07-16T12:14:13;11.52;;;4.13;;
10226;SDS011;15634;48.766;2.272;2023-07-16T12:16:40;11.73;;;4.60;;
10226;SDS011;15634;48.766;2.272;2023-07-16T12:19:08;10.02;;;4.60;;
10226;SDS011;15634;48.766;2.272;2023-07-16T12:21:35;8.93;;;4.38;;
10226;SDS011;15634;48.766;2.272;2023-07-16T12:24:02;7.50;;;3.65;;
10226;SDS011;15634;48.766;2.272;2023-07-16T12:26:29;8.30;;;4.45;;
10226;SDS011;15634;48.766;2.272;2023-07-16T12:28:56;11.30;;;5.47;;
10226;SDS011;15634;48.766;2.272;2023-07-16T12:31:23;10.80;;;5.22;;
10226;SDS011;15634;48.766;2.272;2023-07-16T12:33:49;9.68;;;4.57;;
10226;SDS011;15634;48.766;2.272;2023-07-16T12:36:17;8.07;;;4.47;;
10226;SDS011;15634;48.766;2.272;2023-07-16T12:38:44;11.20;;;4.45;;
10226;SDS011;15634;48.766;2.272;2023-07-16T12:41:11;8.38;;;4.72;;
10226;SDS011;15634;48.766;2.272;2023-07-16T12:43:40;10.80;;;4.60;;
10226;SDS011;15634;48.766;2.272;2023-07-16T12:46:06;8.60;;;4.80;;
10226;SDS011;15634;48.766;2.272;2023-07-16T12:48:34;7.05;;;3.90;;
10226;SDS011;15634;48.766;2.272;2023-07-16T12:51:00;11.15;;;4.32;;
10226;SDS011;15634;48.766;2.272;2023-07-16T12:53:28;10.55;;;4.88;;
10226;SDS011;15634;48.766;2.272;2023-07-16T12:55:55;10.20;;;4.30;;
10226;SDS011;15634;48.766;2.272;2023-07-16T12:58:22;8.98;;;4.80;;
10226;SDS011;15634;48.766;2.272;2023-07-16T13:00:48;12.70;;;4.60;;
10226;SDS011;15634;48.766;2.272;2023-07-16T13:03:15;10.05;;;4.38;;
10226;SDS011;15634;48.766;2.272;2023-07-16T13:05:42;10.48;;;4.45;;
10226;SDS011;15634;48.766;2.272;2023-07-16T13:08:10;7.53;;;4.03;;
10226;SDS011;15634;48.766;2.272;2023-07-16T13:10:38;7.90;;;4.13;;
10226;SDS011;15634;48.766;2.272;2023-07-16T13:13:05;9.52;;;4.28;;
10226;SDS011;15634;48.766;2.272;2023-07-16T13:15:33;7.93;;;4.03;;
10226;SDS011;15634;48.766;2.272;2023-07-16T13:17:59;8.23;;;4.45;;
10226;SDS011;15634;48.766;2.272;2023-07-16T13:20:26;8.18;;;4.18;;
10226;SDS011;15634;48.766;2.272;2023-07-16T13:22:54;7.38;;;4.30;;
10226;SDS011;15634;48.766;2.272;2023-07-16T13:25:21;11.15;;;4.78;;
10226;SDS011;15634;48.766;2.272;2023-07-16T13:27:49;8.25;;;4.63;;
10226;SDS011;15634;48.766;2.272;2023-07-16T13:30:18;10.13;;;4.38;;
10226;SDS011;15634;48.766;2.272;2023-07-16T13:32:45;9.50;;;4.95;;
10226;SDS011;15634;48.766;2.272;2023-07-16T13:35:13;10.23;;;4.32;;
10226;SDS011;15634;48.766;2.272;2023-07-16T13:37:40;10.82;;;4.55;;
10226;SDS011;15634;48.766;2.272;2023-07-16T13:40:07;10.77;;;4.78;;
10226;SDS011;15634;48.766;2.272;2023-07-16T13:42:34;9.63;;;4.60;;
10226;SDS011;15634;48.766;2.272;2023-07-16T13:45:02;8.40;;;4.38;;
10226;SDS011;15634;48.766;2.272;2023-07-16T13:47:29;7.32;;;4.20;;
10226;SDS011;15634;48.766;2.272;2023-07-16T13:49:56;8.40;;;4.72;;
10226;SDS011;15634;48.766;2.272;2023-07-16T13:52:22;11.10;;;4.95;;
10226;SDS011;15634;48.766;2.272;2023-07-16T13:54:49;12.60;;;4.97;;
10226;SDS011;15634;48.766;2.272;2023-07-16T13:57:16;8.38;;;4.72;;
10226;SDS011;15634;48.766;2.272;2023-07-16T13:59:42;10.15;;;4.82;;
10226;SDS011;15634;48.766;2.272;2023-07-16T14:02:10;12.20;;;5.22;;
10226;SDS011;15634;48.766;2.272;2023-07-16T14:04:37;12.93;;;6.13;;
10226;SDS011;15634;48.766;2.272;2023-07-16T14:07:04;11.40;;;5.80;;
10226;SDS011;15634;48.766;2.272;2023-07-16T14:09:30;8.40;;;4.43;;
10226;SDS011;15634;48.766;2.272;2023-07-16T14:11:57;9.23;;;4.07;;
10226;SDS011;15634;48.766;2.272;2023-07-16T14:14:24;10.23;;;4.35;;
10226;SDS011;15634;48.766;2.272;2023-07-16T14:16:50;7.72;;;4.38;;
10226;SDS011;15634;48.766;2.272;2023-07-16T14:19:19;9.52;;;4.00;;
10226;SDS011;15634;48.766;2.272;2023-07-16T14:21:46;10.45;;;4.25;;
10226;SDS011;15634;48.766;2.272;2023-07-16T14:24:13;9.68;;;3.92;;
10226;SDS011;15634;48.766;2.272;2023-07-16T14:26:39;11.35;;;4.75;;
10226;SDS011;15634;48.766;2.272;2023-07-16T14:29:06;9.30;;;4.30;;
10226;SDS011;15634;48.766;2.272;2023-07-16T14:31:32;8.90;;;4.30;;
10226;SDS011;15634;48.766;2.272;2023-07-16T14:33:59;7.78;;;4.00;;
10226;SDS011;15634;48.766;2.272;2023-07-16T14:36:28;10.05;;;4.35;;
10226;SDS011;15634;48.766;2.272;2023-07-16T14:38:55;9.85;;;4.18;;